createdAt,value
2023-07-25T00:01:29.600Z,4.43
2023-07-25T00:04:17.052Z,5.47
2023-07-25T00:07:04.413Z,4.50
2023-07-25T00:09:51.671Z,4.28
2023-07-25T00:12:39.170Z,3.95
2023-07-25T00:15:26.379Z,5.00
2023-07-25T00:18:13.661Z,7.95
2023-07-25T00:21:00.874Z,4.38
2023-07-25T00:23:48.037Z,4.13
2023-07-25T00:26:35.229Z,4.93
2023-07-25T00:29:22.391Z,4.78
2023-07-25T00:32:09.671Z,3.88
2023-07-25T00:34:56.859Z,5.97
2023-07-25T00:37:44.056Z,4.47
2023-07-25T00:40:31.276Z,4.82
2023-07-25T00:43:18.481Z,4.38
2023-07-25T00:46:06.570Z,6.57
2023-07-25T00:48:54.188Z,5.93
2023-07-25T00:51:41.461Z,5.07
2023-07-25T00:54:28.747Z,7.57
2023-07-25T00:57:17.994Z,5.85
2023-07-25T01:00:05.989Z,4.15
2023-07-25T01:02:53.658Z,7.47
2023-07-25T01:05:45.182Z,5.85
2023-07-25T01:08:32.609Z,6.22
2023-07-25T01:11:21.219Z,4.85
2023-07-25T01:14:08.415Z,3.75
2023-07-25T01:16:55.865Z,4.80
2023-07-25T01:19:45.770Z,5.45
2023-07-25T01:22:37.896Z,6.15
2023-07-25T01:25:25.985Z,6.22
2023-07-25T01:28:13.148Z,5.82
2023-07-25T01:31:00.350Z,3.60
2023-07-25T01:33:47.548Z,7.90
2023-07-25T01:36:34.705Z,5.35
2023-07-25T01:39:21.902Z,4.78
2023-07-25T01:42:09.281Z,5.57
2023-07-25T01:44:56.482Z,5.53
2023-07-25T01:47:43.644Z,3.90
2023-07-25T01:50:31.094Z,7.43
2023-07-25T01:53:18.238Z,6.00
2023-07-25T01:56:05.401Z,6.72
2023-07-25T01:58:52.568Z,8.35
2023-07-25T02:01:40.206Z,6.40
2023-07-25T02:04:27.385Z,7.85
2023-07-25T02:07:14.610Z,5.72
2023-07-25T02:10:01.887Z,7.88
2023-07-25T02:12:49.069Z,5.78
2023-07-25T02:15:37.888Z,4.45
2023-07-25T02:18:25.159Z,7.30
2023-07-25T02:21:12.433Z,5.15
2023-07-25T02:23:59.602Z,6.88
2023-07-25T02:26:46.820Z,5.35
2023-07-25T02:29:34.033Z,6.32
2023-07-25T02:32:21.234Z,4.97
2023-07-25T02:35:08.525Z,7.00
2023-07-25T02:37:55.779Z,5.25
2023-07-25T02:40:43.322Z,5.65
2023-07-25T02:43:30.510Z,3.95
2023-07-25T02:46:17.799Z,5.15
2023-07-25T02:49:04.998Z,5.90
2023-07-25T02:51:52.283Z,5.18
2023-07-25T02:54:39.469Z,8.40
2023-07-25T02:57:26.592Z,5.13
2023-07-25T03:00:14.360Z,4.55
2023-07-25T03:03:01.689Z,5.05
2023-07-25T03:05:48.982Z,6.03
2023-07-25T03:08:36.164Z,8.68
2023-07-25T03:11:23.301Z,5.90
2023-07-25T03:14:10.406Z,7.78
2023-07-25T03:16:57.580Z,6.80
2023-07-25T03:19:44.744Z,6.47
2023-07-25T03:22:31.907Z,5.57
2023-07-25T03:25:19.160Z,4.57
2023-07-25T03:28:06.347Z,6.18
2023-07-25T03:30:53.486Z,6.57
2023-07-25T03:33:40.677Z,5.93
2023-07-25T03:36:27.829Z,8.35
2023-07-25T03:39:14.987Z,6.72
2023-07-25T03:42:03.533Z,6.90
2023-07-25T03:44:52.463Z,6.80
2023-07-25T03:47:39.687Z,5.88
2023-07-25T03:50:27.231Z,4.63
2023-07-25T03:53:14.366Z,9.82
2023-07-25T03:56:01.767Z,4.72
2023-07-25T03:58:48.926Z,6.97
2023-07-25T04:01:36.114Z,5.43
2023-07-25T04:04:23.421Z,7.75
2023-07-25T04:07:10.657Z,3.50
2023-07-25T04:09:57.815Z,5.95
2023-07-25T04:12:44.971Z,4.82
2023-07-25T04:15:32.116Z,6.00
2023-07-25T04:18:19.786Z,6.00
2023-07-25T04:21:07.069Z,5.03
2023-07-25T04:23:54.333Z,6.90
2023-07-25T04:26:41.457Z,4.60
2023-07-25T04:29:28.660Z,6.78
2023-07-25T04:32:16.096Z,5.68
2023-07-25T04:35:03.305Z,5.30
2023-07-25T04:37:50.544Z,6.15
2023-07-25T04:40:37.686Z,6.50
2023-07-25T04:43:24.909Z,4.20
2023-07-25T04:46:12.131Z,5.10
2023-07-25T04:48:59.414Z,3.78
2023-07-25T04:51:46.570Z,5.38
2023-07-25T04:54:33.710Z,4.72
2023-07-25T04:57:20.925Z,6.32
2023-07-25T05:00:08.603Z,7.80
2023-07-25T05:02:55.898Z,6.25
2023-07-25T05:05:43.141Z,6.25
2023-07-25T05:08:30.296Z,6.50
2023-07-25T05:11:17.455Z,8.80
2023-07-25T05:14:04.657Z,6.13
2023-07-25T05:16:51.819Z,4.15
2023-07-25T05:19:42.754Z,5.88
2023-07-25T05:22:29.949Z,8.88
2023-07-25T05:25:17.115Z,9.20
2023-07-25T05:28:04.463Z,6.35
2023-07-25T05:30:51.583Z,9.35
2023-07-25T05:33:38.748Z,7.53
2023-07-25T05:36:26.157Z,5.28
2023-07-25T05:39:13.354Z,6.03
2023-07-25T05:42:00.564Z,5.68
2023-07-25T05:44:47.709Z,8.25
2023-07-25T05:47:34.960Z,7.10
2023-07-25T05:50:22.182Z,5.78
2023-07-25T05:53:09.440Z,7.85
2023-07-25T05:55:56.598Z,5.75
2023-07-25T05:58:44.666Z,6.68
2023-07-25T06:01:32.332Z,5.97
2023-07-25T06:04:19.987Z,8.52
2023-07-25T06:07:07.470Z,5.88
2023-07-25T06:09:54.638Z,7.38
2023-07-25T06:12:43.310Z,8.32
2023-07-25T06:15:31.141Z,4.90
2023-07-25T06:18:18.358Z,6.95
2023-07-25T06:21:05.516Z,5.53
2023-07-25T06:23:52.690Z,6.97
2023-07-25T06:26:39.916Z,4.72
2023-07-25T06:29:27.067Z,5.68
2023-07-25T06:32:14.290Z,9.65
2023-07-25T06:35:01.812Z,6.57
2023-07-25T06:37:49.891Z,7.22
2023-07-25T06:40:37.122Z,6.63
2023-07-25T06:43:24.326Z,5.22
2023-07-25T06:46:11.507Z,7.57
2023-07-25T06:48:59.000Z,7.07
2023-07-25T06:51:47.951Z,7.97
2023-07-25T06:54:36.606Z,8.63
2023-07-25T06:57:23.846Z,6.72
2023-07-25T07:00:11.589Z,5.30
2023-07-25T07:02:58.846Z,7.55
2023-07-25T07:05:58.220Z,10.00
2023-07-25T07:08:45.410Z,7.60
2023-07-25T07:11:32.839Z,6.03
2023-07-25T07:14:20.199Z,6.13
2023-07-25T07:17:07.405Z,5.28
2023-07-25T07:20:00.169Z,7.82
2023-07-25T07:22:47.412Z,7.13
2023-07-25T07:25:37.913Z,6.30
2023-07-25T07:28:25.149Z,9.60
2023-07-25T07:31:13.500Z,5.47
2023-07-25T07:34:16.356Z,5.00
2023-07-25T07:37:03.804Z,7.68
2023-07-25T07:39:50.989Z,7.00
2023-07-25T07:42:38.143Z,9.88
2023-07-25T07:45:26.246Z,7.88
2023-07-25T07:48:13.453Z,7.85
2023-07-25T07:51:04.570Z,6.90
2023-07-25T07:53:52.093Z,6.72
2023-07-25T07:56:39.272Z,7.00
2023-07-25T07:59:26.418Z,5.70
2023-07-25T08:02:13.603Z,5.72
2023-07-25T08:05:00.944Z,5.15
2023-07-25T08:07:49.073Z,5.07
2023-07-25T08:10:36.292Z,9.68
2023-07-25T08:13:23.543Z,8.32
2023-07-25T08:16:10.818Z,5.15
2023-07-25T08:18:57.955Z,5.07
2023-07-25T08:21:45.210Z,4.13
2023-07-25T08:24:33.519Z,6.15
2023-07-25T08:27:20.839Z,4.05
2023-07-25T08:30:09.049Z,4.93
2023-07-25T08:32:56.298Z,4.75
2023-07-25T08:35:44.060Z,6.68
2023-07-25T08:38:31.505Z,6.90
2023-07-25T08:41:23.101Z,6.60
2023-07-25T08:44:13.598Z,4.47
2023-07-25T08:47:06.541Z,7.05
2023-07-25T08:49:55.977Z,4.93
2023-07-25T08:52:56.268Z,3.75
2023-07-25T08:55:44.319Z,4.68
2023-07-25T08:58:31.731Z,5.20
2023-07-25T09:01:20.408Z,6.28
2023-07-25T09:04:10.271Z,4.55
2023-07-25T09:06:57.855Z,7.53
2023-07-25T09:09:45.276Z,4.13
2023-07-25T09:12:32.429Z,6.38
2023-07-25T09:15:20.184Z,7.30
2023-07-25T09:18:07.478Z,7.32
2023-07-25T09:20:54.866Z,3.80
2023-07-25T09:23:58.704Z,5.90
2023-07-25T09:26:53.144Z,8.13
2023-07-25T09:29:40.284Z,4.43
2023-07-25T09:32:28.949Z,3.72
2023-07-25T09:35:17.043Z,4.40
2023-07-25T09:38:04.230Z,5.45
2023-07-25T09:40:51.549Z,4.65
2023-07-25T09:43:40.116Z,3.72
2023-07-25T09:46:27.405Z,8.60
2023-07-25T09:49:22.684Z,7.85
2023-07-25T09:52:09.971Z,6.45
2023-07-25T09:54:57.684Z,6.47
2023-07-25T09:57:45.133Z,5.72
2023-07-25T10:00:32.837Z,5.65
2023-07-25T10:03:22.377Z,4.95
2023-07-25T10:06:11.502Z,3.95
2023-07-25T10:08:59.034Z,7.97
2023-07-25T10:11:51.710Z,3.35
2023-07-25T10:14:39.443Z,5.85
2023-07-25T10:17:26.982Z,6.03
2023-07-25T10:20:23.008Z,3.65
2023-07-25T10:23:12.169Z,4.60
2023-07-25T10:26:16.071Z,5.22
2023-07-25T10:29:23.172Z,5.28
2023-07-25T10:32:18.029Z,3.17
2023-07-25T10:35:05.620Z,5.45
2023-07-25T10:37:54.244Z,3.60
2023-07-25T10:40:58.444Z,6.30
2023-07-25T10:43:56.771Z,4.93
2023-07-25T10:46:44.101Z,4.50
2023-07-25T10:49:56.869Z,4.35
2023-07-25T10:52:44.991Z,5.20
2023-07-25T10:55:32.217Z,7.43
2023-07-25T10:58:19.645Z,4.30
2023-07-25T11:01:08.134Z,3.67
2023-07-25T11:03:55.358Z,4.90
2023-07-25T11:06:42.502Z,4.00
2023-07-25T11:09:30.000Z,3.75
2023-07-25T11:12:24.583Z,3.65
2023-07-25T11:15:11.904Z,4.60
2023-07-25T11:17:59.933Z,4.82
2023-07-25T11:21:02.719Z,3.17
2023-07-25T11:24:04.236Z,5.55
2023-07-25T11:26:51.480Z,4.53
2023-07-25T11:29:38.816Z,6.07
2023-07-25T11:32:29.597Z,5.50
2023-07-25T11:35:17.256Z,8.50
2023-07-25T11:38:04.739Z,4.43
2023-07-25T11:40:54.208Z,6.85
2023-07-25T11:43:45.654Z,5.15
2023-07-25T11:46:34.384Z,5.93
2023-07-25T11:49:40.065Z,5.97
2023-07-25T11:52:28.162Z,5.00
2023-07-25T11:55:15.789Z,6.15
2023-07-25T11:58:03.902Z,3.58
2023-07-25T12:00:55.794Z,4.68
2023-07-25T12:03:48.884Z,5.70
2023-07-25T12:06:36.256Z,5.70
2023-07-25T12:09:29.372Z,6.65
2023-07-25T12:12:16.576Z,5.65
2023-07-25T12:15:04.043Z,4.30
2023-07-25T12:17:51.491Z,6.60
2023-07-25T12:20:52.528Z,4.40
2023-07-25T12:23:44.943Z,6.05
2023-07-25T12:26:55.304Z,7.43
2023-07-25T12:29:42.536Z,5.22
2023-07-25T12:32:29.700Z,5.15
2023-07-25T12:35:17.071Z,2.15
2023-07-25T12:38:04.246Z,3.38
2023-07-25T12:40:51.420Z,5.47
2023-07-25T12:43:38.756Z,2.45
2023-07-25T12:46:25.996Z,3.28
2023-07-25T12:49:13.198Z,4.13
2023-07-25T12:52:01.784Z,2.15
2023-07-25T12:54:48.950Z,5.28
2023-07-25T12:57:36.637Z,3.03
2023-07-25T13:00:25.853Z,1.88
2023-07-25T13:03:13.878Z,1.92
2023-07-25T13:06:01.451Z,3.15
2023-07-25T13:08:48.642Z,3.13
2023-07-25T13:11:35.872Z,1.95
2023-07-25T13:14:23.088Z,3.92
2023-07-25T13:17:10.308Z,2.58
2023-07-25T13:19:57.482Z,4.70
2023-07-25T13:22:44.745Z,3.03
2023-07-25T13:25:31.953Z,1.83
2023-07-25T13:28:19.194Z,1.48
2023-07-25T13:31:06.350Z,1.92
2023-07-25T13:33:53.501Z,1.92
2023-07-25T13:36:41.010Z,4.25
2023-07-25T13:39:28.181Z,1.63
2023-07-25T13:42:15.374Z,1.90
2023-07-25T13:45:02.599Z,2.33
2023-07-25T13:47:49.872Z,1.85
2023-07-25T13:50:50.615Z,1.40
2023-07-25T13:53:40.656Z,2.47
2023-07-25T13:56:27.788Z,1.58
2023-07-25T13:59:15.128Z,1.88
2023-07-25T14:02:04.181Z,1.52
2023-07-25T14:04:51.381Z,2.00
2023-07-25T14:07:38.518Z,1.67
2023-07-25T14:10:25.692Z,1.73
2023-07-25T14:13:12.903Z,2.10
2023-07-25T14:16:01.774Z,1.85
2023-07-25T14:18:49.053Z,1.38
2023-07-25T14:21:36.213Z,1.45
2023-07-25T14:24:23.391Z,0.80
2023-07-25T14:27:10.598Z,4.28
2023-07-25T14:29:57.914Z,4.03
2023-07-25T14:32:45.127Z,2.28
2023-07-25T14:35:32.474Z,1.15
2023-07-25T14:38:19.813Z,1.42
2023-07-25T14:41:07.414Z,1.20
2023-07-25T14:43:54.666Z,4.03
2023-07-25T14:46:41.949Z,0.65
2023-07-25T14:49:29.215Z,2.85
2023-07-25T14:52:16.984Z,1.80
2023-07-25T14:55:04.492Z,1.80
2023-07-25T14:57:51.659Z,2.17
2023-07-25T15:00:38.836Z,2.42
2023-07-25T15:03:26.072Z,2.13
2023-07-25T15:06:13.260Z,1.65
2023-07-25T15:09:01.005Z,1.38
2023-07-25T15:11:48.204Z,1.75
2023-07-25T15:14:35.462Z,1.80
2023-07-25T15:17:24.140Z,1.52
2023-07-25T15:20:11.579Z,0.93
2023-07-25T15:22:58.788Z,1.83
2023-07-25T15:25:45.945Z,1.80
2023-07-25T15:28:33.130Z,2.20
2023-07-25T15:31:21.186Z,1.15
2023-07-25T15:34:08.352Z,1.52
2023-07-25T15:36:55.448Z,4.55
2023-07-25T15:39:42.688Z,1.92
2023-07-25T15:42:29.936Z,1.00
2023-07-25T15:45:17.236Z,1.30
2023-07-25T15:48:04.678Z,1.27
2023-07-25T15:50:52.053Z,2.53
2023-07-25T15:53:39.189Z,1.50
2023-07-25T15:56:26.409Z,2.00
2023-07-25T15:59:15.115Z,1.23
2023-07-25T16:02:02.289Z,2.03
2023-07-25T16:04:49.418Z,1.70
2023-07-25T16:07:37.025Z,1.67
2023-07-25T16:10:24.312Z,1.98
2023-07-25T16:13:11.461Z,2.22
2023-07-25T16:15:58.626Z,1.85
2023-07-25T16:18:45.846Z,0.98
2023-07-25T16:21:33.648Z,0.80
2023-07-25T16:24:21.261Z,0.60
2023-07-25T16:27:08.479Z,2.00
2023-07-25T16:29:55.671Z,0.82
2023-07-25T16:32:42.960Z,1.20
2023-07-25T16:35:30.163Z,0.95
2023-07-25T16:38:17.447Z,1.10
2023-07-25T16:41:04.748Z,0.98
2023-07-25T16:43:51.967Z,1.00
2023-07-25T16:46:39.124Z,1.35
2023-07-25T16:49:28.051Z,0.88
2023-07-25T16:52:16.393Z,0.80
2023-07-25T16:55:04.631Z,1.85
2023-07-25T16:57:51.881Z,2.15
2023-07-25T17:00:39.796Z,1.73
2023-07-25T17:03:27.189Z,3.00
2023-07-25T17:06:14.441Z,0.73
2023-07-25T17:09:04.077Z,0.68
2023-07-25T17:11:51.225Z,1.40
2023-07-25T17:14:38.361Z,0.85
2023-07-25T17:17:27.054Z,2.40
2023-07-25T17:20:15.765Z,1.50
2023-07-25T17:23:03.196Z,1.05
2023-07-25T17:25:50.447Z,0.98
2023-07-25T17:28:37.612Z,1.98
2023-07-25T17:31:25.797Z,1.63
2023-07-25T17:34:13.390Z,0.70
2023-07-25T17:37:01.519Z,0.98
2023-07-25T17:39:48.984Z,1.77
2023-07-25T17:42:36.231Z,1.05
2023-07-25T17:45:24.972Z,1.75
2023-07-25T17:48:12.422Z,1.00
2023-07-25T17:50:59.597Z,1.02
2023-07-25T17:53:47.081Z,1.33
2023-07-25T17:56:34.219Z,2.47
2023-07-25T17:59:21.722Z,0.95
2023-07-25T18:02:08.876Z,0.98
2023-07-25T18:04:56.047Z,0.98
2023-07-25T18:07:43.311Z,3.45
2023-07-25T18:10:30.439Z,1.58
2023-07-25T18:13:21.300Z,2.22
2023-07-25T18:16:08.458Z,1.73
2023-07-25T18:18:55.654Z,0.93
2023-07-25T18:21:42.819Z,1.75
2023-07-25T18:24:29.990Z,1.90
2023-07-25T18:27:17.250Z,0.82
2023-07-25T18:30:04.808Z,1.88
2023-07-25T18:32:52.008Z,0.98
2023-07-25T18:35:39.139Z,1.90
2023-07-25T18:38:26.338Z,1.00
2023-07-25T18:41:13.487Z,1.38
2023-07-25T18:44:00.699Z,1.02
2023-07-25T18:46:47.914Z,1.45
2023-07-25T18:49:35.146Z,1.40
2023-07-25T18:52:22.413Z,2.97
2023-07-25T18:55:10.500Z,2.10
2023-07-25T18:57:57.714Z,4.60
2023-07-25T19:00:45.150Z,2.05
2023-07-25T19:03:32.783Z,3.70
2023-07-25T19:06:19.972Z,2.72
2023-07-25T19:09:08.360Z,2.33
2023-07-25T19:11:56.680Z,1.25
2023-07-25T19:14:43.831Z,1.10
2023-07-25T19:17:32.027Z,2.03
2023-07-25T19:20:19.292Z,2.17
2023-07-25T19:23:19.681Z,2.08
2023-07-25T19:26:13.544Z,2.30
2023-07-25T19:29:01.588Z,3.55
2023-07-25T19:31:49.202Z,3.05
2023-07-25T19:34:36.626Z,2.85
2023-07-25T19:37:23.783Z,2.35
2023-07-25T19:40:11.334Z,1.35
2023-07-25T19:42:58.509Z,3.22
2023-07-25T19:45:45.871Z,2.13
2023-07-25T19:48:33.190Z,1.45
2023-07-25T19:51:20.337Z,2.25
2023-07-25T19:54:07.530Z,3.55
2023-07-25T19:56:54.737Z,1.45
2023-07-25T19:59:41.917Z,1.55
2023-07-25T20:02:29.257Z,3.33
2023-07-25T20:05:16.627Z,2.30
2023-07-25T20:08:04.276Z,3.92
2023-07-25T20:10:51.462Z,1.85
2023-07-25T20:13:39.340Z,3.17
2023-07-25T20:16:26.518Z,1.45
2023-07-25T20:19:13.732Z,5.10
2023-07-25T20:22:01.006Z,1.90
2023-07-25T20:24:48.197Z,3.38
2023-07-25T20:27:35.404Z,3.80
2023-07-25T20:30:22.543Z,1.30
2023-07-25T20:33:09.750Z,2.15
2023-07-25T20:35:56.969Z,1.60
2023-07-25T20:38:47.604Z,1.30
2023-07-25T20:41:34.750Z,2.45
2023-07-25T20:44:21.964Z,1.95
2023-07-25T20:47:09.279Z,2.85
2023-07-25T20:49:56.490Z,2.97
2023-07-25T20:52:43.842Z,1.88
2023-07-25T20:55:31.026Z,2.00
2023-07-25T20:58:18.132Z,3.90
2023-07-25T21:01:05.337Z,1.77
2023-07-25T21:03:52.482Z,1.52
2023-07-25T21:06:39.642Z,1.63
2023-07-25T21:09:26.856Z,2.83
2023-07-25T21:12:13.976Z,2.58
2023-07-25T21:15:01.103Z,1.67
2023-07-25T21:17:55.593Z,2.05
2023-07-25T21:20:50.370Z,1.98
2023-07-25T21:23:37.604Z,1.77
2023-07-25T21:26:25.054Z,1.80
2023-07-25T21:29:12.187Z,1.90
2023-07-25T21:31:59.377Z,1.70
2023-07-25T21:34:46.549Z,1.65
2023-07-25T21:37:33.710Z,1.80
2023-07-25T21:40:20.839Z,2.63
2023-07-25T21:43:08.006Z,1.88
2023-07-25T21:45:55.148Z,2.35
2023-07-25T21:48:42.305Z,2.08
2023-07-25T21:51:29.783Z,1.65
2023-07-25T21:54:17.327Z,2.63
2023-07-25T21:57:04.557Z,1.70
2023-07-25T21:59:51.803Z,2.60
2023-07-25T22:02:39.116Z,2.40
2023-07-25T22:05:26.272Z,2.85
2023-07-25T22:08:13.401Z,1.55
2023-07-25T22:11:00.537Z,3.05
2023-07-25T22:13:47.736Z,2.53
2023-07-25T22:16:35.377Z,2.22
2023-07-25T22:19:22.933Z,1.92
2023-07-25T22:22:10.094Z,2.13
2023-07-25T22:25:01.171Z,2.70
2023-07-25T22:27:53.134Z,2.08
2023-07-25T22:30:40.357Z,1.75
2023-07-25T22:33:27.693Z,2.15
2023-07-25T22:36:14.817Z,1.90
2023-07-25T22:39:02.018Z,2.22
2023-07-25T22:41:49.340Z,2.42
2023-07-25T22:44:36.658Z,3.22
2023-07-25T22:47:23.913Z,2.95
2023-07-25T22:50:11.073Z,1.58
2023-07-25T22:52:58.394Z,3.20
2023-07-25T22:55:45.507Z,2.72
2023-07-25T22:58:32.680Z,3.30
2023-07-25T23:01:20.279Z,2.13
2023-07-25T23:04:07.493Z,1.80
2023-07-25T23:06:54.605Z,2.70
2023-07-25T23:09:41.718Z,3.63
2023-07-25T23:12:28.903Z,3.72
2023-07-25T23:15:16.679Z,2.97
2023-07-25T23:18:04.043Z,1.80
2023-07-25T23:20:51.316Z,2.40
2023-07-25T23:23:38.465Z,3.28
2023-07-25T23:26:25.606Z,1.98
2023-07-25T23:29:13.713Z,2.55
2023-07-25T23:32:00.872Z,3.22
2023-07-25T23:34:51.631Z,2.70
2023-07-25T23:37:38.801Z,2.65
2023-07-25T23:40:25.938Z,5.22
2023-07-25T23:43:13.160Z,2.45
2023-07-25T23:46:00.347Z,5.20
2023-07-25T23:48:47.525Z,2.25
2023-07-25T23:51:34.642Z,4.10
2023-07-25T23:54:21.825Z,2.92
2023-07-25T23:57:08.963Z,2.65
2023-07-25T23:59:56.133Z,2.28
